createdAt,value
2022-12-18T00:02:48.235Z,101783.91
2022-12-18T00:06:51.498Z,101783.47
2022-12-18T00:10:54.724Z,101778.78
2022-12-18T00:15:05.786Z,101782.59
2022-12-18T00:19:09.338Z,101774.34
2022-12-18T00:23:12.459Z,101780.63
2022-12-18T00:27:15.592Z,101780.03
2022-12-18T00:31:23.397Z,101779.69
2022-12-18T00:35:29.259Z,101763.16
2022-12-18T00:39:32.567Z,101771.09
2022-12-18T00:43:36.596Z,101772.31
2022-12-18T00:47:41.759Z,101769.22
2022-12-18T00:51:45.116Z,101767.50
2022-12-18T00:55:48.452Z,101772.63
2022-12-18T00:59:51.609Z,101769.91
2022-12-18T01:03:56.595Z,101761.97
2022-12-18T01:08:00.348Z,101755.28
2022-12-18T01:12:03.490Z,101762.81
2022-12-18T01:16:07.600Z,101743.84
2022-12-18T01:20:15.351Z,101746.19
2022-12-18T01:24:18.445Z,101752.50
2022-12-18T01:28:21.562Z,101759.78
2022-12-18T01:32:24.946Z,101761.34
2022-12-18T01:36:31.665Z,101750.69
2022-12-18T01:40:35.022Z,101767.88
2022-12-18T01:45:01.593Z,101763.75
2022-12-18T01:49:05.159Z,101747.06
2022-12-18T01:53:13.310Z,101753.38
2022-12-18T01:57:17.087Z,101753.09
2022-12-18T02:01:21.220Z,101757.94
2022-12-18T02:05:34.216Z,101754.25
2022-12-18T02:09:48.731Z,101744.81
2022-12-18T02:13:59.011Z,101743.78
2022-12-18T02:18:09.953Z,101752.03
2022-12-18T02:22:26.997Z,101752.91
2022-12-18T02:26:35.974Z,101740.53
2022-12-18T02:30:41.526Z,101740.44
2022-12-18T02:34:46.634Z,101738.44
2022-12-18T02:38:54.619Z,101736.72
2022-12-18T02:43:05.557Z,101734.84
2022-12-18T02:47:13.068Z,101739.50
2022-12-18T02:51:26.150Z,101745.94
2022-12-18T02:55:46.607Z,101752.72
2022-12-18T03:00:00.665Z,101741.78
2022-12-18T03:04:10.182Z,101736.00
2022-12-18T03:08:19.873Z,101727.53
2022-12-18T03:12:30.625Z,101727.75
2022-12-18T03:16:38.322Z,101718.75
2022-12-18T03:20:47.529Z,101711.72
2022-12-18T03:24:56.158Z,101721.28
2022-12-18T03:29:06.615Z,101720.72
2022-12-18T03:33:15.968Z,101713.59
2022-12-18T03:37:22.204Z,101714.00
2022-12-18T03:41:33.756Z,101708.56
2022-12-18T03:46:08.997Z,101711.88
2022-12-18T03:50:18.873Z,101699.66
2022-12-18T03:54:27.651Z,101702.78
2022-12-18T03:58:40.767Z,101690.56
2022-12-18T04:02:56.597Z,101691.75
2022-12-18T04:07:09.370Z,101685.09
2022-12-18T04:11:15.370Z,101697.78
2022-12-18T04:15:20.730Z,101695.13
2022-12-18T04:19:24.247Z,101695.00
2022-12-18T04:23:30.608Z,101691.97
2022-12-18T04:27:35.733Z,101696.97
2022-12-18T04:31:40.773Z,101693.53
2022-12-18T04:35:44.228Z,101685.63
2022-12-18T04:39:48.989Z,101678.09
2022-12-18T04:44:00.179Z,101669.06
2022-12-18T04:48:04.347Z,101673.19
2022-12-18T04:52:08.902Z,101658.16
2022-12-18T04:56:15.420Z,101654.91
2022-12-18T05:00:18.850Z,101643.38
2022-12-18T05:04:22.006Z,101650.41
2022-12-18T05:08:25.744Z,101655.59
2022-12-18T05:12:30.274Z,101673.31
2022-12-18T05:16:33.567Z,101684.13
2022-12-18T05:20:36.693Z,101684.28
2022-12-18T05:24:40.900Z,101698.25
2022-12-18T05:28:45.923Z,101699.91
2022-12-18T05:32:49.086Z,101708.28
2022-12-18T05:36:52.240Z,101714.91
2022-12-18T05:40:56.103Z,101712.50
2022-12-18T05:45:00.554Z,101717.81
2022-12-18T05:49:03.869Z,101707.22
2022-12-18T05:53:07.673Z,101711.34
2022-12-18T05:57:11.292Z,101714.94
2022-12-18T06:01:18.729Z,101709.41
2022-12-18T06:05:22.122Z,101709.03
2022-12-18T06:09:25.495Z,101689.78
2022-12-18T06:13:28.713Z,101690.13
2022-12-18T06:17:34.015Z,101687.44
2022-12-18T06:21:37.358Z,101677.78
2022-12-18T06:25:41.363Z,101675.03
2022-12-18T06:29:44.705Z,101682.78
2022-12-18T06:33:49.303Z,101680.91
2022-12-18T06:37:52.584Z,101675.47
2022-12-18T06:41:55.935Z,101680.03
2022-12-18T06:46:01.503Z,101668.25
2022-12-18T06:50:06.833Z,101661.97
2022-12-18T06:54:10.392Z,101672.47
2022-12-18T06:58:13.492Z,101687.34
2022-12-18T07:02:19.936Z,101679.34
2022-12-18T07:06:26.128Z,101685.69
2022-12-18T07:10:29.461Z,101682.34
2022-12-18T07:14:32.676Z,101673.56
2022-12-18T07:18:36.127Z,101672.63
2022-12-18T07:22:40.626Z,101670.06
2022-12-18T07:26:43.829Z,101663.78
2022-12-18T07:30:47.048Z,101662.91
2022-12-18T07:34:50.887Z,101659.97
2022-12-18T07:38:55.479Z,101667.63
2022-12-18T07:42:58.734Z,101650.47
2022-12-18T07:47:01.873Z,101650.09
2022-12-18T07:51:07.583Z,101634.00
2022-12-18T07:55:12.285Z,101632.72
2022-12-18T07:59:15.394Z,101621.09
2022-12-18T08:03:18.537Z,101614.34
2022-12-18T08:07:21.684Z,101613.56
2022-12-18T08:11:28.309Z,101601.84
2022-12-18T08:15:31.459Z,101600.22
2022-12-18T08:19:34.576Z,101587.72
2022-12-18T08:23:42.350Z,101586.34
2022-12-18T08:27:47.727Z,101585.28
2022-12-18T08:31:50.986Z,101589.25
2022-12-18T08:35:54.398Z,101602.72
2022-12-18T08:39:57.611Z,101596.22
2022-12-18T08:44:19.760Z,101597.66
2022-12-18T08:48:23.418Z,101575.28
2022-12-18T08:52:26.622Z,101571.19
2022-12-18T08:56:31.392Z,101584.44
2022-12-18T09:00:35.929Z,101598.66
2022-12-18T09:04:41.203Z,101592.84
2022-12-18T09:08:44.768Z,101566.56
2022-12-18T09:12:48.127Z,101554.88
2022-12-18T09:16:52.707Z,101557.81
2022-12-18T09:20:56.091Z,101549.78
2022-12-18T09:24:59.181Z,101539.53
2022-12-18T09:29:02.467Z,101526.22
2022-12-18T09:33:07.118Z,101529.72
2022-12-18T09:37:10.739Z,101533.53
2022-12-18T09:41:27.651Z,101528.22
2022-12-18T09:45:37.657Z,101524.53
2022-12-18T09:49:46.558Z,101518.53
2022-12-18T09:53:54.936Z,101511.69
2022-12-18T09:58:03.570Z,101507.63
2022-12-18T10:02:22.359Z,101502.91
2022-12-18T10:06:37.733Z,101498.16
2022-12-18T10:10:46.085Z,101501.03
2022-12-18T10:14:59.262Z,101511.75
2022-12-18T10:19:23.410Z,101514.13
2022-12-18T10:23:35.853Z,101508.81
2022-12-18T10:27:39.076Z,101486.63
2022-12-18T10:31:42.594Z,101488.44
2022-12-18T10:35:47.551Z,101472.34
2022-12-18T10:40:09.524Z,101472.22
2022-12-18T10:44:18.077Z,101473.69
2022-12-18T10:48:23.483Z,101466.88
2022-12-18T10:52:29.428Z,101475.78
2022-12-18T10:56:37.144Z,101467.34
2022-12-18T11:00:40.587Z,101456.66
2022-12-18T11:04:54.000Z,101458.88
2022-12-18T11:09:03.662Z,101451.31
2022-12-18T11:13:19.433Z,101434.72
2022-12-18T11:17:26.114Z,101420.91
2022-12-18T11:21:30.068Z,101414.78
2022-12-18T11:25:36.335Z,101397.34
2022-12-18T11:29:46.548Z,101400.53
2022-12-18T11:34:27.013Z,101384.91
2022-12-18T11:38:25.250Z,101377.81
2022-12-18T11:42:38.159Z,101364.00
2022-12-18T11:46:51.451Z,101372.56
2022-12-18T11:50:57.598Z,101376.97
2022-12-18T11:55:03.892Z,101371.97
2022-12-18T11:59:15.827Z,101376.50
2022-12-18T12:03:49.983Z,101378.81
2022-12-18T12:08:01.817Z,101369.28
2022-12-18T12:12:20.237Z,101375.88
2022-12-18T12:16:31.713Z,101362.34
2022-12-18T12:20:49.975Z,101353.41
2022-12-18T12:25:04.530Z,101353.16
2022-12-18T12:29:23.754Z,101350.09
2022-12-18T12:33:39.937Z,101336.41
2022-12-18T12:37:55.567Z,101325.38
2022-12-18T12:42:16.786Z,101336.50
2022-12-18T12:46:23.889Z,101318.06
2022-12-18T12:50:28.503Z,101331.88
2022-12-18T12:54:34.903Z,101309.41
2022-12-18T12:58:48.225Z,101304.75
2022-12-18T13:02:58.930Z,101300.09
2022-12-18T13:07:08.559Z,101291.44
2022-12-18T13:11:54.827Z,101294.00
2022-12-18T13:16:07.769Z,101271.97
2022-12-18T13:20:14.042Z,101262.44
2022-12-18T13:24:26.841Z,101262.69
2022-12-18T13:28:56.272Z,101267.31
2022-12-18T13:34:02.066Z,101256.56
2022-12-18T13:38:23.072Z,101242.91
2022-12-18T13:43:02.021Z,101237.56
2022-12-18T13:47:07.817Z,101232.91
2022-12-18T13:51:13.120Z,101234.16
2022-12-18T13:55:20.478Z,101236.34
2022-12-18T13:59:27.238Z,101236.34
2022-12-18T14:03:32.609Z,101243.44
2022-12-18T14:07:38.300Z,101241.13
2022-12-18T14:11:52.384Z,101241.00
2022-12-18T14:15:56.676Z,101220.47
2022-12-18T14:20:02.607Z,101224.13
2022-12-18T14:24:08.529Z,101222.69
2022-12-18T14:28:17.954Z,101213.66
2022-12-18T14:32:23.572Z,101206.81
2022-12-18T14:36:30.205Z,101212.19
2022-12-18T14:40:33.519Z,101209.97
2022-12-18T14:44:50.578Z,101211.69
2022-12-18T14:49:00.946Z,101203.41
2022-12-18T14:53:05.672Z,101209.75
2022-12-18T14:57:28.275Z,101209.75
2022-12-18T15:01:34.829Z,101210.47
2022-12-18T15:05:38.167Z,101217.56
2022-12-18T15:09:44.877Z,101222.94
2022-12-18T15:13:48.080Z,101216.72
2022-12-18T15:17:51.268Z,101223.19
2022-12-18T15:21:54.506Z,101224.06
2022-12-18T15:26:00.977Z,101216.09
2022-12-18T15:30:20.053Z,101217.81
2022-12-18T15:34:24.569Z,101232.47
2022-12-18T15:38:28.083Z,101225.63
2022-12-18T15:42:46.699Z,101219.53
2022-12-18T15:46:49.818Z,101212.84
2022-12-18T15:50:54.736Z,101213.09
2022-12-18T15:55:15.326Z,101202.97
2022-12-18T15:59:21.907Z,101207.84
2022-12-18T16:03:25.124Z,101202.00
2022-12-18T16:07:31.103Z,101202.25
2022-12-18T16:11:42.959Z,101202.25
2022-12-18T16:15:47.735Z,101209.81
2022-12-18T16:19:50.943Z,101199.06
2022-12-18T16:23:54.039Z,101199.56
2022-12-18T16:27:58.323Z,101208.34
2022-12-18T16:32:03.326Z,101194.44
2022-12-18T16:36:07.144Z,101183.94
2022-12-18T16:40:13.678Z,101188.59
2022-12-18T16:44:16.880Z,101204.31
2022-12-18T16:48:21.476Z,101202.84
2022-12-18T16:52:24.797Z,101187.63
2022-12-18T16:56:28.566Z,101183.31
2022-12-18T17:00:31.734Z,101175.41
2022-12-18T17:04:36.361Z,101188.44
2022-12-18T17:08:39.563Z,101193.56
2022-12-18T17:12:43.029Z,101189.31
2022-12-18T17:16:49.181Z,101185.66
2022-12-18T17:21:02.157Z,101177.47
2022-12-18T17:25:06.069Z,101168.81
2022-12-18T17:29:09.531Z,101167.09
2022-12-18T17:33:12.792Z,101172.22
2022-12-18T17:37:19.066Z,101166.13
2022-12-18T17:41:22.578Z,101180.03
2022-12-18T17:45:25.769Z,101186.25
2022-12-18T17:49:28.976Z,101196.88
2022-12-18T17:53:34.050Z,101196.00
2022-12-18T17:57:37.767Z,101184.66
2022-12-18T18:01:44.736Z,101183.44
2022-12-18T18:05:48.664Z,101181.97
2022-12-18T18:09:53.255Z,101187.84
2022-12-18T18:14:02.410Z,101197.22
2022-12-18T18:18:05.978Z,101178.81
2022-12-18T18:22:09.343Z,101174.28
2022-12-18T18:26:14.103Z,101195.66
2022-12-18T18:30:17.652Z,101196.63
2022-12-18T18:34:24.450Z,101181.97
2022-12-18T18:38:27.734Z,101179.78
2022-12-18T18:42:32.447Z,101191.50
2022-12-18T18:46:35.683Z,101190.38
2022-12-18T18:50:38.813Z,101181.34
2022-12-18T18:55:03.591Z,101180.00
2022-12-18T18:59:06.507Z,101169.03
2022-12-18T19:03:10.037Z,101154.34
2022-12-18T19:07:13.287Z,101173.09
2022-12-18T19:11:36.837Z,101189.47
2022-12-18T19:15:41.341Z,101181.31
2022-12-18T19:19:44.840Z,101171.16
2022-12-18T19:23:48.648Z,101167.63
2022-12-18T19:27:51.966Z,101167.47
2022-12-18T19:31:56.562Z,101163.34
2022-12-18T19:36:00.084Z,101161.34
2022-12-18T19:40:04.332Z,101165.75
2022-12-18T19:44:18.533Z,101169.28
2022-12-18T19:48:23.110Z,101172.81
2022-12-18T19:52:26.359Z,101167.34
2022-12-18T19:56:32.163Z,101182.59
2022-12-18T20:00:35.736Z,101183.47
2022-12-18T20:04:40.289Z,101179.44
2022-12-18T20:08:43.506Z,101186.25
2022-12-18T20:12:46.700Z,101183.81
2022-12-18T20:16:50.159Z,101176.25
2022-12-18T20:20:55.365Z,101186.00
2022-12-18T20:25:01.144Z,101185.75
2022-12-18T20:29:04.694Z,101191.38
2022-12-18T20:33:08.302Z,101193.72
2022-12-18T20:37:12.820Z,101205.56
2022-12-18T20:41:19.237Z,101198.69
2022-12-18T20:45:22.528Z,101195.50
2022-12-18T20:49:27.512Z,101191.81
2022-12-18T20:53:32.727Z,101186.84
2022-12-18T20:57:36.713Z,101187.16
2022-12-18T21:01:48.350Z,101189.72
2022-12-18T21:05:52.165Z,101189.59
2022-12-18T21:09:56.727Z,101187.91
2022-12-18T21:13:59.862Z,101179.38
2022-12-18T21:18:02.988Z,101187.81
2022-12-18T21:22:06.409Z,101172.78
2022-12-18T21:26:22.870Z,101173.28
2022-12-18T21:30:26.203Z,101182.59
2022-12-18T21:34:31.185Z,101180.06
2022-12-18T21:38:34.479Z,101179.19
2022-12-18T21:42:56.715Z,101173.81
2022-12-18T21:47:09.375Z,101170.38
2022-12-18T21:51:15.612Z,101166.88
2022-12-18T21:55:18.859Z,101162.47
2022-12-18T21:59:25.169Z,101154.88
2022-12-18T22:03:28.555Z,101150.34
2022-12-18T22:07:32.303Z,101163.41
2022-12-18T22:11:40.464Z,101153.25
2022-12-18T22:15:45.171Z,101142.22
2022-12-18T22:19:49.018Z,101142.84
2022-12-18T22:23:57.014Z,101128.44
2022-12-18T22:28:17.700Z,101125.84
2022-12-18T22:32:30.641Z,101113.38
2022-12-18T22:36:38.832Z,101107.75
2022-12-18T22:40:42.037Z,101097.56
2022-12-18T22:44:45.175Z,101095.34
2022-12-18T22:48:51.236Z,101088.63
2022-12-18T22:52:54.291Z,101089.78
2022-12-18T22:56:57.265Z,101088.41
2022-12-18T23:01:00.559Z,101079.09
2022-12-18T23:05:08.621Z,101080.25
2022-12-18T23:09:16.636Z,101087.38
2022-12-18T23:13:19.730Z,101087.13
2022-12-18T23:17:23.160Z,101069.72
2022-12-18T23:21:27.601Z,101056.72
2022-12-18T23:25:32.229Z,101043.28
2022-12-18T23:29:35.712Z,101050.97
2022-12-18T23:33:38.866Z,101023.63
2022-12-18T23:37:59.309Z,101028.63
2022-12-18T23:42:03.140Z,101025.50
2022-12-18T23:46:12.250Z,101018.13
2022-12-18T23:50:15.597Z,101035.72
2022-12-18T23:54:23.231Z,101022.25
2022-12-18T23:58:37.896Z,101014.19
